Ethel, LA (70730)

2:32 PM CST on December 04, 2016 (GMT -0600)
APRSWXNET | | Change Station

Elev 226 ft 30.79 °N, 91.09 °W | Updated 30 minutes ago

Light Rain
Light Rain Mist
56 °F
Feels Like 56 °F
N
0
Wind Variable Wind from NNW
Gusts 0.0 mph

Today
High -- | Low -- °F
--% Chance of Precip.
Yesterday
High -- | Low -- °F
Precip. -- in
Pressure 29.92 in
Visibility 3.0 miles
Clouds Mostly Cloudy 300 ft
Mostly Cloudy 4500 ft
Overcast 8500 ft
Dew Point 56 °F
Humidity 99%
Rainfall in
Snow Depth Not available.
6:47 AM 5:02 PM
Waxing Crescent, 25% visible
METAR KBTR 041953Z 02004KT 3SM -RA BR BKN003 BKN045 OVC085 14/14 A2992 RMK AO2 SLP130 P0004 T01440139
Pressure 29.92 in
Visibility 3.0 miles
Clouds Mostly Cloudy 300 ft
Mostly Cloudy 4500 ft
Overcast 8500 ft
Dew Point 56 °F
Humidity 99%
Rainfall in
Snow Depth Not available.
6:47 AM 5:02 PM
Waxing Crescent, 25% visible
METAR KBTR 041953Z 02004KT 3SM -RA BR BKN003 BKN045 OVC085 14/14 A2992 RMK AO2 SLP130 P0004 T01440139

10-Day Weather Forecast

Almanac

Astronomy

Dec. 04, 2016 Rise Set
Actual Time
Civil Twilight
Nautical Twilight
Astronomical Twilight
Moon
Length of Visible Light
Length of Day
Tomorrow will be .
, % of the Moon is Illuminated

Today's Extremes

State Highs State Lows

Community

WunderPhotos

Upload Photos

1,955,667 photos uploaded!

WunderBlog® & News

Nearby

Air Quality

  Air Quality AQ Index Pollutant
Not available.

Snow Depth

Station Depth Elevation

Earthquake Activity

City Distance Mag. Time & Date
Minimum magnitude displayed is 2.5.

Coastal Water Temperatures

Place Temperature

Stations

Nearby Weather Stations

Station Location Temp. Windchill Dew Point Humidity Wind Precip. Elev Updated Type
                   

Watches & Warnings

There are currently no watches in effect.